Pagina principale
METAR-TAF:

METAR-TAF

Aeroporti :

Aeroporto di Crotone

Crotone, Italia

latitudine: 39-00N, longitudine: 017-04E, altezza: 155 m

Osservazione

Il bollettino è stato emesso 1 ora e 13 minuti fa, alle 10:50 UTC
Vento 6 kt da sud
Temperature 12°C
Umidità 82%
Pressione 1013 hPa
Visibilità 10 km o più
Nubi sparse ad un'altezza di 1500 ft

METAR: LIBC 211050Z 18006KT 9999 SCT015 12/09 Q1013

Ora: 13:03 (12:03 UTC)

Previsione

Il bollettino è stato emesso 1 ora e 3 minuti fa, alle 11:00 UTC
Previsione valida dal 21 alle 12 UTC al 22 alle 12 UTC
Vento 12 kt da sud
Visibilità 10 km o più
Nubi sparse ad un'altezza di 3000 ft
Temporaneamente
dal 21 alle 12 UTC al 21 alle 15 UTC
rovesci di pioggia
Temporaneamente
dal 21 alle 18 UTC al 21 alle 24 UTC
Visibilità: 4000 m
temporale, pioggia

TAF: LIBC 211100Z 2112/2212 18012KT 9999 SCT030 TEMPO 2112/2115 SHRA TEMPO 2118/2124 4000 TSRA

Osservazioni e previsioni meteorologiche di più di 4000 aeroporti (messaggi METAR e TAF).

Le stazioni disponibili sono rappresentate dai dischi gialli e rossi sulla carta.

Puntare il mouse per vedere il nome della stazione.

Clicca sopra per visualizzare le osservazioni e previsioni meteorologiche.

Per cambiare la mappa : fare clic sui pulsanti verdi con una croce nera per ingrandire, il pulsante verde con un trattino per diminuire, o sulla freccia verde per le mappe adiacenti.


METAR-TAF: